createdAt,value
2019-06-07T00:01:29.640Z,62.04
2019-06-07T00:03:56.449Z,62.69
2019-06-07T00:06:25.368Z,61.33
2019-06-07T00:08:52.197Z,61.48
2019-06-07T00:11:20.690Z,61.27
2019-06-07T00:13:47.638Z,62.53
2019-06-07T00:16:19.105Z,61.13
2019-06-07T00:18:43.280Z,62.03
2019-06-07T00:21:10.090Z,62.56
2019-06-07T00:23:36.905Z,61.39
2019-06-07T00:26:03.841Z,61.80
2019-06-07T00:28:30.549Z,62.86
2019-06-07T00:30:57.392Z,62.62
2019-06-07T00:33:25.101Z,63.17
2019-06-07T00:35:52.111Z,62.82
2019-06-07T00:38:21.751Z,63.52
2019-06-07T00:40:48.132Z,62.44
2019-06-07T00:43:17.611Z,62.27
2019-06-07T00:45:43.474Z,63.86
2019-06-07T00:48:16.192Z,63.65
2019-06-07T00:50:39.257Z,63.80
2019-06-07T00:53:17.544Z,62.86
2019-06-07T00:55:34.848Z,65.17
2019-06-07T00:58:07.717Z,63.48
2019-06-07T01:00:34.512Z,64.31
2019-06-07T01:03:01.343Z,65.67
2019-06-07T01:05:31.425Z,64.77
2019-06-07T01:07:56.995Z,65.84
2019-06-07T01:10:51.788Z,66.25
2019-06-07T01:12:52.516Z,66.16
2019-06-07T01:15:27.599Z,65.63
2019-06-07T01:18:33.224Z,66.10
2019-06-07T01:20:23.822Z,66.25
2019-06-07T01:22:48.652Z,67.13
2019-06-07T01:25:15.818Z,65.31
2019-06-07T01:27:42.734Z,67.11
2019-06-07T01:30:10.408Z,66.85
2019-06-07T01:32:37.354Z,67.99
2019-06-07T01:35:04.785Z,67.31
2019-06-07T01:37:31.516Z,67.71
2019-06-07T01:39:58.224Z,67.67
2019-06-07T01:42:28.880Z,67.47
2019-06-07T01:44:58.858Z,67.96
2019-06-07T01:47:31.236Z,68.25
2019-06-07T01:49:54.280Z,68.51
2019-06-07T01:52:23.538Z,68.71
2019-06-07T01:54:58.030Z,69.04
2019-06-07T01:57:36.579Z,68.82
2019-06-07T01:59:47.246Z,69.35
2019-06-07T02:02:14.133Z,69.49
2019-06-07T02:04:40.890Z,69.21
2019-06-07T02:07:07.605Z,69.83
2019-06-07T02:09:34.429Z,69.64
2019-06-07T02:12:01.371Z,69.18
2019-06-07T02:14:30.618Z,69.50
2019-06-07T02:16:56.956Z,69.43
2019-06-07T02:19:24.277Z,69.71
2019-06-07T02:21:51.116Z,69.63
2019-06-07T02:24:24.487Z,69.42
2019-06-07T02:26:47.922Z,69.76
2019-06-07T02:29:14.826Z,70.09
2019-06-07T02:31:42.700Z,69.51
2019-06-07T02:34:09.509Z,70.04
2019-06-07T02:36:41.346Z,69.78
2019-06-07T02:39:05.860Z,70.11
2019-06-07T02:41:38.549Z,70.82
2019-06-07T02:44:01.626Z,70.39
2019-06-07T02:46:36.196Z,70.78
2019-06-07T02:48:57.065Z,70.22
2019-06-07T02:51:27.290Z,70.84
2019-06-07T02:53:52.566Z,70.56
2019-06-07T02:56:48.605Z,70.66
2019-06-07T02:58:48.455Z,70.78
2019-06-07T03:01:15.761Z,70.80
2019-06-07T03:03:42.683Z,71.15
2019-06-07T03:06:12.546Z,70.02
2019-06-07T03:08:39.652Z,70.88
2019-06-07T03:11:06.755Z,71.42
2019-06-07T03:13:37.172Z,71.00
2019-06-07T03:16:03.924Z,71.50
2019-06-07T03:19:05.280Z,71.76
2019-06-07T03:21:36.362Z,71.50
2019-06-07T03:24:03.493Z,71.71
2019-06-07T03:26:34.908Z,71.93
2019-06-07T03:29:00.218Z,72.32
2019-06-07T03:31:31.310Z,72.22
2019-06-07T03:33:56.217Z,72.35
2019-06-07T03:36:25.741Z,72.70
2019-06-07T03:38:51.834Z,72.12
2019-06-07T03:41:18.665Z,72.64
2019-06-07T03:43:45.461Z,71.79
2019-06-07T03:46:12.362Z,72.26
2019-06-07T03:48:41.386Z,72.56
2019-06-07T03:51:24.252Z,72.47
2019-06-07T03:53:37.358Z,72.44
2019-06-07T03:56:05.379Z,72.64
2019-06-07T03:58:37.893Z,73.38
2019-06-07T04:01:04.951Z,72.28
2019-06-07T04:03:42.104Z,72.39
2019-06-07T04:06:00.484Z,72.19
2019-06-07T04:08:28.271Z,72.71
2019-06-07T04:11:00.282Z,72.62
2019-06-07T04:13:24.076Z,72.84
2019-06-07T04:15:51.186Z,72.68
2019-06-07T04:18:18.639Z,72.35
2019-06-07T04:20:45.454Z,71.80
2019-06-07T04:23:27.902Z,71.65
2019-06-07T04:25:42.636Z,71.28
2019-06-07T04:28:09.683Z,71.73
2019-06-07T04:30:42.009Z,71.76
2019-06-07T04:33:09.678Z,71.46
2019-06-07T04:35:40.042Z,72.04
2019-06-07T04:38:06.579Z,71.76
2019-06-07T04:40:35.847Z,72.35
2019-06-07T04:43:02.826Z,72.59
2019-06-07T04:45:37.360Z,72.40
2019-06-07T04:47:59.173Z,72.14
2019-06-07T04:50:27.234Z,72.93
2019-06-07T04:52:54.027Z,72.72
2019-06-07T04:55:29.055Z,72.37
2019-06-07T04:57:56.476Z,71.59
2019-06-07T05:00:49.781Z,72.00
2019-06-07T05:03:00.594Z,71.99
2019-06-07T05:05:29.301Z,72.10
2019-06-07T05:07:56.311Z,72.12
2019-06-07T05:10:23.128Z,72.85
2019-06-07T05:12:49.823Z,71.59
2019-06-07T05:15:16.670Z,72.29
2019-06-07T05:17:45.223Z,71.45
2019-06-07T05:20:12.105Z,71.64
2019-06-07T05:22:44.391Z,71.87
2019-06-07T05:25:07.976Z,71.70
2019-06-07T05:27:36.457Z,69.94
2019-06-07T05:30:13.634Z,71.06
2019-06-07T05:32:34.277Z,72.03
2019-06-07T05:35:01.327Z,70.35
2019-06-07T05:37:38.045Z,70.62
2019-06-07T05:40:05.666Z,71.53
2019-06-07T05:42:34.570Z,70.91
2019-06-07T05:45:01.452Z,71.39
2019-06-07T05:47:28.304Z,70.97
2019-06-07T05:49:55.342Z,71.58
2019-06-07T05:52:23.490Z,70.57
2019-06-07T05:54:51.379Z,71.09
2019-06-07T05:57:23.966Z,70.90
2019-06-07T05:59:50.898Z,70.90
2019-06-07T06:02:23.160Z,70.62
2019-06-07T06:04:50.719Z,69.29
2019-06-07T06:07:34.761Z,69.75
2019-06-07T06:10:03.183Z,69.97
2019-06-07T06:12:35.467Z,69.79
2019-06-07T06:14:58.669Z,70.14
2019-06-07T06:17:36.865Z,69.52
2019-06-07T06:20:07.917Z,69.46
2019-06-07T06:22:41.710Z,69.56
2019-06-07T06:25:31.557Z,69.57
2019-06-07T06:28:05.900Z,69.92
2019-06-07T06:30:08.844Z,69.68
2019-06-07T06:32:54.379Z,69.47
2019-06-07T06:35:05.465Z,69.13
2019-06-07T06:37:32.290Z,69.55
2019-06-07T06:39:59.146Z,69.63
2019-06-07T06:42:26.093Z,69.84
2019-06-07T06:44:54.242Z,68.98
2019-06-07T06:47:21.527Z,68.32
2019-06-07T06:49:50.021Z,69.00
2019-06-07T06:52:17.119Z,69.34
2019-06-07T06:54:59.228Z,69.78
2019-06-07T06:57:26.376Z,69.67
2019-06-07T06:59:55.674Z,69.09
2019-06-07T07:02:23.883Z,67.85
2019-06-07T07:04:54.175Z,67.21
2019-06-07T07:07:23.193Z,68.44
2019-06-07T07:09:54.958Z,67.93
2019-06-07T07:12:19.257Z,67.46
2019-06-07T07:14:49.172Z,68.61
2019-06-07T07:17:14.722Z,68.59
2019-06-07T07:19:42.567Z,67.12
2019-06-07T07:22:10.391Z,68.08
2019-06-07T07:24:37.094Z,67.41
2019-06-07T07:27:03.947Z,67.77
2019-06-07T07:29:31.008Z,67.78
2019-06-07T07:31:57.836Z,67.81
2019-06-07T07:34:34.689Z,68.11
2019-06-07T07:36:59.229Z,68.10
2019-06-07T07:39:22.318Z,67.81
2019-06-07T07:42:15.323Z,67.59
2019-06-07T07:44:17.856Z,67.64
2019-06-07T07:46:46.511Z,67.48
2019-06-07T07:49:13.440Z,67.75
2019-06-07T07:51:40.219Z,67.62
2019-06-07T07:54:10.616Z,66.51
2019-06-07T07:56:35.772Z,66.43
2019-06-07T07:59:03.053Z,66.26
2019-06-07T08:01:29.893Z,65.78
2019-06-07T08:03:57.397Z,67.15
2019-06-07T08:06:25.576Z,66.49
2019-06-07T08:08:54.475Z,66.36
2019-06-07T08:11:21.104Z,67.00
2019-06-07T08:13:48.127Z,66.20
2019-06-07T08:16:18.535Z,66.93
2019-06-07T08:18:43.659Z,67.41
2019-06-07T08:21:24.355Z,67.49
2019-06-07T08:23:39.323Z,66.94
2019-06-07T08:26:07.343Z,64.92
2019-06-07T08:28:34.270Z,64.73
2019-06-07T08:31:07.044Z,66.76
2019-06-07T08:33:30.136Z,65.94
2019-06-07T08:36:10.529Z,66.11
2019-06-07T08:38:29.741Z,65.80
2019-06-07T08:40:59.135Z,66.17
2019-06-07T08:43:23.035Z,66.85
2019-06-07T08:45:51.272Z,65.72
2019-06-07T08:48:27.907Z,65.12
2019-06-07T08:50:47.561Z,64.90
2019-06-07T08:53:14.382Z,62.43
2019-06-07T08:55:41.832Z,61.71
2019-06-07T08:58:09.123Z,62.70
2019-06-07T09:00:47.091Z,63.42
2019-06-07T09:03:07.167Z,62.48
2019-06-07T09:05:33.524Z,63.72
2019-06-07T09:08:23.663Z,62.74
2019-06-07T09:10:30.110Z,64.68
2019-06-07T09:13:03.875Z,63.96
2019-06-07T09:15:27.016Z,62.55
2019-06-07T09:18:40.144Z,62.63
2019-06-07T09:20:36.664Z,64.36
2019-06-07T09:22:59.098Z,63.50
2019-06-07T09:25:24.806Z,64.80
2019-06-07T09:27:51.595Z,63.42
2019-06-07T09:30:44.292Z,63.72
2019-06-07T09:33:11.846Z,64.31
2019-06-07T09:35:38.713Z,63.04
2019-06-07T09:38:18.141Z,62.66
2019-06-07T09:40:35.085Z,63.71
2019-06-07T09:43:47.411Z,62.69
2019-06-07T09:45:30.657Z,62.82
2019-06-07T09:47:59.467Z,63.08
2019-06-07T09:50:26.245Z,65.11
2019-06-07T09:52:58.703Z,64.51
2019-06-07T09:55:24.897Z,62.27
2019-06-07T09:57:50.347Z,61.99
2019-06-07T10:02:46.220Z,62.33
2019-06-07T10:05:14.333Z,62.11
2019-06-07T10:08:00.020Z,61.76
2019-06-07T10:12:39.201Z,61.02
2019-06-07T10:15:07.031Z,61.67
2019-06-07T10:17:33.809Z,59.75
2019-06-07T10:20:02.604Z,60.42
2019-06-07T10:22:29.210Z,60.74
2019-06-07T10:24:56.033Z,61.85
2019-06-07T10:27:22.776Z,60.51
2019-06-07T10:29:49.558Z,61.30
2019-06-07T10:32:16.402Z,62.15
2019-06-07T10:34:43.310Z,60.73
2019-06-07T10:37:15.016Z,61.13
2019-06-07T10:39:48.204Z,60.54
2019-06-07T10:42:08.255Z,60.14
2019-06-07T10:44:36.172Z,61.29
2019-06-07T10:47:04.000Z,59.28
2019-06-07T10:49:31.083Z,60.09
2019-06-07T10:52:02.946Z,59.45
2019-06-07T10:54:30.824Z,57.65
2019-06-07T10:56:57.401Z,58.44
2019-06-07T10:59:24.187Z,58.11
2019-06-07T11:01:51.065Z,58.55
2019-06-07T11:04:17.786Z,58.23
2019-06-07T11:06:44.733Z,59.93
2019-06-07T11:09:12.054Z,59.92
2019-06-07T11:11:39.115Z,59.09
2019-06-07T11:14:06.427Z,58.20
2019-06-07T11:16:33.211Z,58.25
2019-06-07T11:19:00.138Z,58.16
2019-06-07T11:21:26.978Z,59.28
2019-06-07T11:23:53.783Z,60.06
2019-06-07T11:26:20.592Z,59.08
2019-06-07T11:28:47.475Z,60.17
2019-06-07T11:31:15.132Z,58.96
2019-06-07T11:33:42.249Z,60.05
2019-06-07T11:36:08.962Z,60.90
2019-06-07T11:38:35.756Z,58.86
2019-06-07T11:41:02.590Z,58.85
2019-06-07T11:43:29.294Z,59.28
2019-06-07T11:45:56.122Z,58.91
2019-06-07T11:48:23.010Z,59.70
2019-06-07T11:50:49.947Z,58.73
2019-06-07T11:53:16.634Z,56.88
2019-06-07T11:55:43.540Z,60.25
2019-06-07T11:58:14.353Z,57.43
2019-06-07T12:00:40.119Z,56.80
2019-06-07T12:03:11.576Z,58.95
2019-06-07T12:05:38.501Z,57.18
2019-06-07T12:08:06.397Z,58.62
2019-06-07T12:10:42.148Z,58.27
2019-06-07T12:13:01.916Z,58.34
2019-06-07T12:15:28.846Z,55.07
2019-06-07T12:18:00.770Z,56.49
2019-06-07T12:20:28.679Z,56.44
2019-06-07T12:22:55.509Z,56.06
2019-06-07T12:25:25.150Z,58.96
2019-06-07T12:27:52.198Z,54.50
2019-06-07T12:30:26.266Z,54.24
2019-06-07T12:32:48.054Z,54.81
2019-06-07T12:35:15.654Z,53.00
2019-06-07T12:37:44.732Z,54.10
2019-06-07T12:40:15.751Z,53.68
2019-06-07T12:42:40.185Z,54.74
2019-06-07T12:45:07.344Z,54.71
2019-06-07T12:47:34.158Z,54.60
2019-06-07T12:50:01.151Z,54.09
2019-06-07T12:52:27.859Z,55.17
2019-06-07T12:54:54.677Z,55.13
2019-06-07T12:57:22.111Z,53.49
2019-06-07T12:59:49.480Z,54.22
2019-06-07T13:02:16.434Z,54.89
2019-06-07T13:04:44.227Z,53.08
2019-06-07T13:07:11.037Z,53.05
2019-06-07T13:09:37.729Z,52.46
2019-06-07T13:12:04.619Z,52.48
2019-06-07T13:14:31.456Z,52.55
2019-06-07T13:16:58.325Z,51.79
2019-06-07T13:19:25.134Z,53.06
2019-06-07T13:21:52.001Z,50.85
2019-06-07T13:24:19.399Z,52.51
2019-06-07T13:26:47.606Z,52.90
2019-06-07T13:29:14.410Z,52.92
2019-06-07T13:31:41.574Z,52.45
2019-06-07T13:34:08.358Z,51.50
2019-06-07T13:36:35.310Z,49.92
2019-06-07T13:39:02.134Z,51.42
2019-06-07T13:41:40.546Z,50.38
2019-06-07T13:43:57.626Z,50.12
2019-06-07T13:46:25.272Z,49.73
2019-06-07T13:48:52.514Z,51.08
2019-06-07T13:51:22.511Z,49.68
2019-06-07T13:53:48.068Z,48.91
2019-06-07T13:56:21.790Z,47.84
2019-06-07T13:58:48.814Z,47.82
2019-06-07T14:01:16.042Z,48.51
2019-06-07T14:03:42.868Z,49.24
2019-06-07T14:06:09.842Z,48.08
2019-06-07T14:08:36.958Z,47.48
2019-06-07T14:11:03.966Z,49.26
2019-06-07T14:13:30.814Z,47.28
2019-06-07T14:15:57.785Z,46.58
2019-06-07T14:18:24.647Z,46.99
2019-06-07T14:20:51.675Z,46.64
2019-06-07T14:23:18.528Z,46.35
2019-06-07T14:25:45.389Z,45.49
2019-06-07T14:28:13.481Z,46.04
2019-06-07T14:30:40.309Z,45.67
2019-06-07T14:33:07.094Z,46.90
2019-06-07T14:35:33.831Z,43.57
2019-06-07T14:38:00.518Z,43.57
2019-06-07T14:40:27.968Z,44.51
2019-06-07T14:42:54.832Z,45.17
2019-06-07T14:45:21.868Z,45.17
2019-06-07T14:47:48.822Z,45.37
2019-06-07T14:50:16.688Z,45.08
2019-06-07T14:52:43.519Z,45.41
2019-06-07T14:55:10.407Z,43.34
2019-06-07T14:57:38.549Z,43.34
2019-06-07T15:00:11.322Z,43.57
2019-06-07T15:02:42.753Z,43.64
2019-06-07T15:05:09.840Z,43.07
2019-06-07T15:07:36.881Z,43.91
2019-06-07T15:10:04.375Z,43.91
2019-06-07T15:12:31.219Z,44.02
2019-06-07T15:14:58.534Z,42.18
2019-06-07T15:17:26.462Z,42.13
2019-06-07T15:19:53.383Z,40.30
2019-06-07T15:22:20.276Z,41.19
2019-06-07T15:24:47.067Z,41.21
2019-06-07T15:27:15.833Z,41.21
2019-06-07T15:29:42.870Z,41.68
2019-06-07T15:32:10.156Z,41.68
2019-06-07T15:34:38.391Z,41.60
2019-06-07T15:37:07.779Z,39.65
2019-06-07T15:39:34.736Z,39.65
2019-06-07T15:42:01.632Z,39.62
2019-06-07T15:44:31.327Z,40.51
2019-06-07T15:46:58.180Z,41.52
2019-06-07T15:49:25.089Z,42.42
2019-06-07T15:51:51.934Z,41.41
2019-06-07T15:54:18.677Z,40.10
2019-06-07T15:56:45.703Z,40.06
2019-06-07T15:59:12.549Z,41.72
2019-06-07T16:01:39.713Z,41.72
2019-06-07T16:04:06.646Z,41.15
2019-06-07T16:06:34.278Z,40.89
2019-06-07T16:09:01.389Z,42.05
2019-06-07T16:11:28.470Z,40.97
2019-06-07T16:13:55.257Z,40.39
2019-06-07T16:16:22.307Z,42.06
2019-06-07T16:18:49.199Z,41.20
2019-06-07T16:21:16.102Z,41.44
2019-06-07T16:23:44.091Z,39.77
2019-06-07T16:26:10.975Z,39.61
2019-06-07T16:28:38.299Z,39.92
2019-06-07T16:31:05.454Z,40.88
2019-06-07T16:33:32.329Z,40.12
2019-06-07T16:35:59.290Z,39.96
2019-06-07T16:38:26.068Z,40.05
2019-06-07T16:40:52.751Z,40.82
2019-06-07T16:43:21.542Z,40.64
2019-06-07T16:45:49.039Z,40.55
2019-06-07T16:48:16.036Z,40.67
2019-06-07T16:50:43.054Z,40.29
2019-06-07T16:53:11.106Z,40.33
2019-06-07T16:55:38.708Z,41.30
2019-06-07T16:58:05.639Z,41.92
2019-06-07T17:00:32.339Z,42.36
2019-06-07T17:02:59.045Z,42.29
2019-06-07T17:05:25.848Z,42.78
2019-06-07T17:07:52.689Z,42.33
2019-06-07T17:10:20.505Z,42.95
2019-06-07T17:12:48.806Z,42.26
2019-06-07T17:15:17.446Z,42.33
2019-06-07T17:17:45.130Z,42.50
2019-06-07T17:20:15.549Z,42.36
2019-06-07T17:22:43.901Z,42.48
2019-06-07T17:25:13.296Z,42.40
2019-06-07T17:27:40.068Z,42.74
2019-06-07T17:30:07.784Z,42.85
2019-06-07T17:32:47.600Z,43.24
2019-06-07T17:35:04.072Z,43.82
2019-06-07T17:37:30.834Z,44.35
2019-06-07T17:39:57.779Z,44.65
2019-06-07T17:42:24.475Z,45.24
2019-06-07T17:44:51.560Z,45.64
2019-06-07T17:47:18.489Z,45.33
2019-06-07T17:49:45.806Z,45.31
2019-06-07T17:52:12.908Z,45.42
2019-06-07T17:54:39.727Z,46.15
2019-06-07T17:57:06.432Z,45.56
2019-06-07T17:59:33.123Z,46.44
2019-06-07T18:02:14.386Z,46.45
2019-06-07T18:04:29.749Z,46.71
2019-06-07T18:06:56.662Z,46.60
2019-06-07T18:09:23.789Z,46.19
2019-06-07T18:11:50.585Z,48.13
2019-06-07T18:14:17.359Z,47.46
2019-06-07T18:16:44.438Z,46.76
2019-06-07T18:19:11.275Z,47.15
2019-06-07T18:21:38.080Z,48.38
2019-06-07T18:24:04.899Z,46.61
2019-06-07T18:26:31.638Z,47.18
2019-06-07T18:28:59.350Z,46.91
2019-06-07T18:31:26.241Z,48.71
2019-06-07T18:33:53.048Z,46.96
2019-06-07T18:36:19.724Z,46.64
2019-06-07T18:38:46.941Z,46.64
2019-06-07T18:41:13.876Z,49.31
2019-06-07T18:43:40.648Z,49.98
2019-06-07T18:46:07.331Z,48.60
2019-06-07T18:48:34.108Z,47.66
2019-06-07T18:51:00.813Z,49.58
2019-06-07T18:53:27.513Z,51.19
2019-06-07T18:55:54.376Z,50.51
2019-06-07T18:58:21.232Z,51.34
2019-06-07T19:00:49.766Z,52.74
2019-06-07T19:03:16.855Z,53.46
2019-06-07T19:05:43.699Z,53.32
2019-06-07T19:08:10.516Z,54.17
2019-06-07T19:10:37.089Z,54.72
2019-06-07T19:13:03.919Z,54.79
2019-06-07T19:15:38.729Z,55.50
2019-06-07T19:18:05.594Z,55.60
2019-06-07T19:20:32.429Z,55.98
2019-06-07T19:23:00.505Z,56.26
2019-06-07T19:25:27.580Z,56.16
2019-06-07T19:27:54.964Z,56.01
2019-06-07T19:30:21.844Z,56.54
2019-06-07T19:32:49.762Z,56.66
2019-06-07T19:35:17.766Z,56.93
2019-06-07T19:37:44.568Z,57.05
2019-06-07T19:40:11.592Z,57.82
2019-06-07T19:42:39.541Z,57.72
2019-06-07T19:45:29.095Z,58.48
2019-06-07T19:47:43.690Z,59.16
2019-06-07T19:50:13.039Z,59.04
2019-06-07T19:52:39.817Z,59.12
2019-06-07T19:55:09.812Z,59.13
2019-06-07T19:57:41.784Z,59.67
2019-06-07T20:00:14.507Z,59.50
2019-06-07T20:02:42.337Z,60.15
2019-06-07T20:05:13.924Z,60.51
2019-06-07T20:07:40.860Z,60.23
2019-06-07T20:10:14.807Z,60.63
2019-06-07T20:12:41.767Z,60.78
2019-06-07T20:15:27.997Z,60.39
2019-06-07T20:17:44.532Z,60.52
2019-06-07T20:20:19.103Z,60.78
2019-06-07T20:22:48.028Z,61.07
2019-06-07T20:25:15.284Z,61.02
2019-06-07T20:27:42.251Z,61.68
2019-06-07T20:30:10.907Z,61.92
2019-06-07T20:32:37.816Z,61.79
2019-06-07T20:35:06.030Z,61.81
2019-06-07T20:37:35.026Z,62.03
2019-06-07T20:40:20.738Z,62.01
2019-06-07T20:42:46.986Z,62.69
2019-06-07T20:45:32.543Z,62.21
2019-06-07T20:47:49.668Z,62.89
2019-06-07T20:50:16.720Z,63.07
2019-06-07T20:52:44.587Z,63.39
2019-06-07T20:55:17.185Z,63.26
2019-06-07T20:57:44.936Z,63.92
2019-06-07T21:00:22.108Z,63.48
2019-06-07T21:02:51.509Z,63.59
2019-06-07T21:05:20.321Z,64.12
2019-06-07T21:07:49.370Z,64.11
2019-06-07T21:10:18.922Z,64.25
2019-06-07T21:12:45.772Z,64.67
2019-06-07T21:15:14.524Z,65.51
2019-06-07T21:17:41.908Z,67.23
2019-06-07T21:20:13.778Z,67.51
2019-06-07T21:22:38.533Z,67.71
2019-06-07T21:25:07.260Z,68.22
2019-06-07T21:27:35.248Z,67.86
2019-06-07T21:30:03.495Z,66.13
2019-06-07T21:32:31.589Z,65.51
2019-06-07T21:34:58.399Z,65.31
2019-06-07T21:37:25.301Z,64.73
2019-06-07T21:39:54.263Z,64.39
2019-06-07T21:42:22.207Z,63.76
2019-06-07T21:44:50.692Z,64.33
2019-06-07T21:47:17.622Z,64.82
2019-06-07T21:49:44.365Z,64.94
2019-06-07T21:52:11.250Z,64.33
2019-06-07T21:54:38.025Z,62.47
2019-06-07T21:57:04.839Z,59.47
2019-06-07T21:59:31.653Z,58.65
2019-06-07T22:01:58.612Z,57.97
2019-06-07T22:04:25.489Z,58.17
2019-06-07T22:06:52.524Z,56.84
2019-06-07T22:09:19.333Z,58.22
2019-06-07T22:11:46.116Z,57.94
2019-06-07T22:14:12.893Z,57.46
2019-06-07T22:16:39.716Z,57.10
2019-06-07T22:19:06.648Z,55.46
2019-06-07T22:21:33.440Z,54.54
2019-06-07T22:24:00.244Z,54.92
2019-06-07T22:26:27.030Z,55.95
2019-06-07T22:28:55.915Z,54.44
2019-06-07T22:31:22.703Z,55.65
2019-06-07T22:33:49.471Z,55.94
2019-06-07T22:36:16.242Z,55.50
2019-06-07T22:38:42.978Z,56.49
2019-06-07T22:41:09.794Z,56.26
2019-06-07T22:43:36.458Z,54.55
2019-06-07T22:46:03.400Z,54.95
2019-06-07T22:48:31.238Z,54.68
2019-06-07T22:51:00.091Z,53.13
2019-06-07T22:53:26.874Z,54.50
2019-06-07T22:56:00.471Z,52.85
2019-06-07T22:58:27.375Z,53.43
2019-06-07T23:00:54.152Z,52.59
2019-06-07T23:03:20.965Z,53.49
2019-06-07T23:05:47.754Z,52.18
2019-06-07T23:08:15.009Z,49.57
2019-06-07T23:10:41.884Z,51.20
2019-06-07T23:13:09.280Z,51.85
2019-06-07T23:15:36.105Z,51.20
2019-06-07T23:18:02.871Z,51.12
2019-06-07T23:20:29.657Z,49.18
2019-06-07T23:22:56.468Z,51.00
2019-06-07T23:25:24.696Z,50.92
2019-06-07T23:27:51.628Z,51.83
2019-06-07T23:30:21.706Z,50.72
2019-06-07T23:32:48.539Z,51.35
2019-06-07T23:35:17.089Z,51.98
2019-06-07T23:37:44.159Z,51.35
2019-06-07T23:40:11.259Z,51.36
2019-06-07T23:42:38.016Z,51.48
2019-06-07T23:45:04.851Z,50.94
2019-06-07T23:47:31.710Z,50.69
2019-06-07T23:49:58.398Z,50.90
2019-06-07T23:52:25.107Z,51.18
2019-06-07T23:54:51.884Z,50.39
2019-06-07T23:57:19.548Z,51.78
2019-06-07T23:59:47.263Z,50.23
